Time;durP1;ratioP1;P1;durP2;ratioP2;P2;SDS_P1;SDS_P2;PMS_P1;PMS_P2;Temp;Humidity;BMP_temperature;BMP_pressure;BME280_temperature;BME280_humidity;BME280_pressure;Samples;Min_cycle;Max_cycle;Signal;HPM_P1;HPM_P2
2023/03/09 00:00:22;;;;;;;19.90;9.20;;;;;;;6.70;60.05;96987.35;105006;1266;99249;-71
2023/03/09 00:03:15;;;;;;;20.10;8.80;;;;;;;6.70;59.68;96980.84;105233;1257;99266;-72
2023/03/09 00:05:54;;;;;;;22.10;9.40;;;;;;;6.70;59.82;96976.84;105609;1254;98050;-72
2023/03/09 00:08:21;;;;;;;21.70;9.20;;;;;;;6.71;60.08;96973.05;105466;1254;110445;-72
2023/03/09 00:10:52;;;;;;;20.90;9.80;;;;;;;6.70;60.06;96973.26;105347;1256;98811;-71
2023/03/09 00:13:20;;;;;;;21.00;9.80;;;;;;;6.71;60.15;96973.39;105416;1276;107624;-72
2023/03/09 00:15:50;;;;;;;20.50;9.60;;;;;;;6.71;60.04;96973.52;105532;1257;99294;-71
2023/03/09 00:18:21;;;;;;;19.70;9.10;;;;;;;6.72;60.23;96969.11;105501;1259;98421;-72
2023/03/09 00:20:48;;;;;;;18.80;8.90;;;;;;;6.72;60.21;96962.90;105445;1257;111375;-72
2023/03/09 00:23:17;;;;;;;22.50;10.00;;;;;;;6.72;60.05;96960.39;105398;1260;97947;-78
2023/03/09 00:25:45;;;;;;;22.00;10.20;;;;;;;6.73;60.41;96955.25;105267;1258;107597;-70
2023/03/09 00:28:11;;;;;;;22.10;9.50;;;;;;;6.74;60.37;96955.88;105356;1260;98064;-72
2023/03/09 00:30:38;;;;;;;21.60;10.20;;;;;;;6.75;60.47;96959.61;105098;1268;98425;-71
2023/03/09 00:33:04;;;;;;;20.70;9.60;;;;;;;6.77;60.42;96963.20;105261;1254;98507;-71
2023/03/09 00:35:34;;;;;;;21.30;9.60;;;;;;;6.78;60.45;96970.48;105052;1254;98409;-71
2023/03/09 00:38:01;;;;;;;21.90;8.80;;;;;;;6.78;60.67;96970.13;105369;1261;98098;-71
2023/03/09 00:40:27;;;;;;;21.00;9.10;;;;;;;6.78;60.92;96970.96;105538;1254;97848;-74
2023/03/09 00:42:54;;;;;;;22.20;10.30;;;;;;;6.79;60.95;96971.46;105123;1256;98567;-71
2023/03/09 00:45:22;;;;;;;20.30;8.40;;;;;;;6.78;60.89;96975.94;105271;1254;98059;-74
2023/03/09 00:47:49;;;;;;;24.00;9.70;;;;;;;6.77;61.22;96969.52;105410;1257;99269;-71
2023/03/09 00:50:16;;;;;;;22.90;10.00;;;;;;;6.74;61.14;96968.88;105319;1268;97958;-71
2023/03/09 00:52:42;;;;;;;23.50;10.40;;;;;;;6.70;61.00;96971.86;105089;1257;97966;-70
2023/03/09 00:55:10;;;;;;;19.90;9.30;;;;;;;6.68;61.19;96971.16;105469;1254;97934;-71
2023/03/09 00:57:36;;;;;;;22.70;9.40;;;;;;;6.65;61.23;96964.06;105502;1254;99272;-70
2023/03/09 01:00:06;;;;;;;22.80;10.70;;;;;;;6.62;61.28;96959.59;105669;1255;97957;-72
2023/03/09 01:02:33;;;;;;;20.50;9.80;;;;;;;6.60;61.34;96959.83;105520;1257;111386;-71
2023/03/09 01:04:59;;;;;;;19.50;9.30;;;;;;;6.58;61.31;96959.39;105305;1253;97948;-71
2023/03/09 01:07:28;;;;;;;21.50;9.30;;;;;;;6.58;61.28;96959.28;105083;1276;98469;-71
2023/03/09 01:09:55;;;;;;;22.00;9.50;;;;;;;6.57;61.27;96956.48;105374;1257;97958;-71
2023/03/09 01:12:22;;;;;;;19.80;8.80;;;;;;;6.57;61.16;96951.20;105417;1256;99272;-72
2023/03/09 01:14:50;;;;;;;22.40;10.50;;;;;;;6.57;61.36;96943.84;105554;1254;97978;-72
2023/03/09 01:17:17;;;;;;;22.00;10.50;;;;;;;6.56;61.33;96934.92;105713;1260;97967;-72
2023/03/09 01:19:43;;;;;;;20.80;10.20;;;;;;;6.57;61.47;96938.40;105007;1254;98920;-71
2023/03/09 01:22:10;;;;;;;21.50;9.60;;;;;;;6.55;61.67;96930.40;105214;1254;98002;-71
2023/03/09 01:24:37;;;;;;;20.30;9.70;;;;;;;6.55;61.60;96930.96;105717;1254;97933;-71
2023/03/09 01:27:03;;;;;;;20.20;9.50;;;;;;;6.53;61.62;96927.77;105394;1253;100633;-71
2023/03/09 01:29:30;;;;;;;20.90;10.10;;;;;;;6.52;61.87;96924.89;105416;1256;97952;-72
2023/03/09 01:31:57;;;;;;;23.90;10.40;;;;;;;6.50;62.09;96919.23;105107;1266;98048;-70
2023/03/09 01:34:23;;;;;;;21.80;10.50;;;;;;;6.49;62.40;96917.80;105458;1253;98051;-70
2023/03/09 01:36:50;;;;;;;20.40;10.30;;;;;;;6.47;62.17;96913.72;105315;1257;97969;-72
2023/03/09 01:39:17;;;;;;;21.50;9.90;;;;;;;6.45;62.19;96914.27;105515;1258;108088;-71
2023/03/09 01:41:44;;;;;;;21.20;9.40;;;;;;;6.44;62.04;96915.41;105470;1256;98613;-71
2023/03/09 01:44:12;;;;;;;20.80;10.20;;;;;;;6.43;62.09;96912.09;105387;1257;99131;-72
2023/03/09 01:46:44;;;;;;;21.70;10.10;;;;;;;6.43;62.01;96907.22;105461;1254;97998;-70
2023/03/09 01:49:25;;;;;;;22.00;11.20;;;;;;;6.41;62.24;96905.98;105399;1258;100859;-71
2023/03/09 01:52:20;;;;;;;20.90;10.30;;;;;;;6.39;62.29;96906.79;104991;1259;107562;-70
2023/03/09 01:54:53;;;;;;;19.90;10.00;;;;;;;6.39;62.53;96905.64;105376;1257;97974;-70
2023/03/09 01:57:20;;;;;;;21.20;9.30;;;;;;;6.39;62.90;96907.05;105415;1253;97941;-70
2023/03/09 01:59:49;;;;;;;21.30;10.20;;;;;;;6.39;62.47;96908.63;105279;1267;97960;-70
2023/03/09 02:02:17;;;;;;;19.50;9.10;;;;;;;6.39;62.39;96909.84;105408;1257;100832;-80
2023/03/09 02:04:50;;;;;;;22.00;10.20;;;;;;;6.41;62.60;96908.95;105189;1260;107154;-71
2023/03/09 02:07:22;;;;;;;21.60;9.80;;;;;;;6.43;63.22;96912.65;105489;1254;98005;-72
2023/03/09 02:09:53;;;;;;;20.80;9.90;;;;;;;6.44;63.76;96913.42;105133;1259;99598;-71
2023/03/09 02:12:22;;;;;;;22.10;10.40;;;;;;;6.45;63.31;96911.93;105315;1260;111202;-71
2023/03/09 02:14:48;;;;;;;21.50;11.10;;;;;;;6.46;63.28;96916.61;105655;1253;101407;-70
2023/03/09 02:17:16;;;;;;;20.80;10.60;;;;;;;6.47;63.14;96921.66;105439;1256;98051;-71
2023/03/09 02:20:00;;;;;;;26.50;11.70;;;;;;;6.46;63.49;96923.64;105450;1254;98023;-70
2023/03/09 02:22:27;;;;;;;20.10;10.00;;;;;;;6.47;63.29;96925.20;105369;1259;98427;-70
2023/03/09 02:25:12;;;;;;;22.40;11.60;;;;;;;6.45;63.20;96925.47;105255;1253;99281;-70
2023/03/09 02:27:39;;;;;;;20.20;10.10;;;;;;;6.45;63.08;96921.11;104967;1257;100587;-71
2023/03/09 02:30:10;;;;;;;22.30;11.60;;;;;;;6.45;63.47;96911.13;105679;1256;97936;-69
2023/03/09 02:32:36;;;;;;;21.30;10.90;;;;;;;6.44;63.32;96905.20;105103;1256;98059;-70
2023/03/09 02:35:04;;;;;;;22.60;11.20;;;;;;;6.42;63.30;96898.80;105366;1257;98649;-70
2023/03/09 02:37:33;;;;;;;23.30;11.40;;;;;;;6.42;63.65;96898.16;105330;1259;98070;-74
2023/03/09 02:40:14;;;;;;;22.80;11.40;;;;;;;6.40;63.91;96893.89;105539;1254;100684;-70
2023/03/09 02:42:44;;;;;;;23.70;10.90;;;;;;;6.40;63.46;96898.66;105534;1253;107290;-70
2023/03/09 02:45:14;;;;;;;23.10;12.10;;;;;;;6.40;63.78;96904.48;105552;1256;97877;-72
2023/03/09 02:47:40;;;;;;;24.20;12.30;;;;;;;6.41;63.91;96904.92;105447;1253;99491;-70
2023/03/09 02:50:09;;;;;;;23.10;11.00;;;;;;;6.42;64.00;96912.79;105497;1253;97868;-74
2023/03/09 02:52:36;;;;;;;25.20;12.30;;;;;;;6.42;63.81;96915.54;105184;1254;100873;-71
2023/03/09 02:55:04;;;;;;;21.60;10.80;;;;;;;6.42;63.65;96914.31;105051;1256;98868;-71
2023/03/09 02:57:32;;;;;;;23.00;11.90;;;;;;;6.43;64.10;96912.38;105532;1257;97936;-71
2023/03/09 02:59:58;;;;;;;22.20;11.40;;;;;;;6.42;63.88;96912.44;105513;1253;98342;-71
2023/03/09 03:02:25;;;;;;;21.50;9.90;;;;;;;6.41;64.11;96909.32;105681;1256;98442;-71
2023/03/09 03:04:52;;;;;;;23.80;11.70;;;;;;;6.42;64.07;96908.90;105226;1257;97941;-71
2023/03/09 03:07:18;;;;;;;24.00;12.40;;;;;;;6.43;64.21;96909.66;105518;1260;97938;-72
2023/03/09 03:09:45;;;;;;;21.60;11.20;;;;;;;6.44;64.10;96908.04;105220;1258;98028;-71
2023/03/09 03:12:12;;;;;;;21.60;11.20;;;;;;;6.44;64.16;96905.41;105199;1260;111247;-72
2023/03/09 03:14:39;;;;;;;22.00;11.30;;;;;;;6.43;64.08;96902.42;105289;1257;98129;-71
2023/03/09 03:17:05;;;;;;;21.60;11.20;;;;;;;6.44;64.33;96902.02;105372;1268;98114;-70
2023/03/09 03:19:32;;;;;;;23.60;12.90;;;;;;;6.45;64.17;96899.11;105337;1254;97934;-70
2023/03/09 03:21:59;;;;;;;23.40;12.90;;;;;;;6.44;64.17;96899.17;105448;1259;97986;-71
2023/03/09 03:24:26;;;;;;;23.60;11.40;;;;;;;6.44;64.43;96894.95;105192;1253;100052;-70
2023/03/09 03:26:54;;;;;;;22.70;12.20;;;;;;;6.45;64.41;96892.02;105382;1256;107739;-70
2023/03/09 03:29:20;;;;;;;23.20;12.10;;;;;;;6.45;64.40;96881.45;105392;1256;97931;-71
2023/03/09 03:31:47;;;;;;;24.70;12.40;;;;;;;6.46;64.55;96881.58;105552;1256;97979;-71
2023/03/09 03:34:14;;;;;;;22.70;11.90;;;;;;;6.47;64.63;96882.39;105028;1257;98459;-72
2023/03/09 03:36:40;;;;;;;23.00;12.20;;;;;;;6.48;64.51;96884.00;105315;1256;97900;-71
2023/03/09 03:39:08;;;;;;;21.20;11.20;;;;;;;6.50;64.35;96885.48;105407;1256;98378;-71
2023/03/09 03:41:36;;;;;;;22.70;11.90;;;;;;;6.50;64.56;96882.27;105205;1266;97860;-71
2023/03/09 03:44:02;;;;;;;21.70;11.00;;;;;;;6.51;64.55;96884.63;105291;1257;98010;-71
2023/03/09 03:46:30;;;;;;;21.80;11.60;;;;;;;6.52;64.75;96874.35;105039;1254;97959;-75
2023/03/09 03:48:56;;;;;;;22.80;11.60;;;;;;;6.54;64.69;96870.80;105413;1267;98047;-70
2023/03/09 03:51:23;;;;;;;25.70;13.60;;;;;;;6.56;64.83;96870.64;105534;1253;98115;-72
2023/03/09 03:53:50;;;;;;;21.90;11.00;;;;;;;6.59;64.91;96877.26;105342;1254;99602;-70
2023/03/09 03:56:17;;;;;;;24.20;12.40;;;;;;;6.61;64.90;96876.52;105431;1253;97999;-72
2023/03/09 03:58:44;;;;;;;21.60;11.90;;;;;;;6.64;64.78;96877.17;105132;1254;97940;-71
2023/03/09 04:01:10;;;;;;;24.30;13.10;;;;;;;6.65;64.92;96872.84;105333;1257;98013;-72
2023/03/09 04:03:37;;;;;;;23.60;12.40;;;;;;;6.66;64.92;96873.91;105075;1257;97937;-73
2023/03/09 04:06:04;;;;;;;23.20;12.00;;;;;;;6.68;64.90;96870.10;105313;1253;97944;-73
2023/03/09 04:08:31;;;;;;;23.90;12.00;;;;;;;6.69;65.08;96865.17;105347;1257;98015;-70
2023/03/09 04:10:59;;;;;;;24.60;14.30;;;;;;;6.71;65.15;96865.77;105281;1256;98366;-73
2023/03/09 04:13:25;;;;;;;25.20;12.50;;;;;;;6.73;65.41;96869.25;105614;1253;98088;-70
2023/03/09 04:15:52;;;;;;;23.50;12.30;;;;;;;6.76;65.36;96867.05;105383;1256;97907;-72
2023/03/09 04:18:19;;;;;;;23.40;12.80;;;;;;;6.78;65.39;96863.11;105629;1256;100959;-71
2023/03/09 04:20:46;;;;;;;24.50;13.90;;;;;;;6.80;65.19;96860.36;104929;1269;98042;-72
2023/03/09 04:23:13;;;;;;;23.60;13.80;;;;;;;6.82;65.03;96858.45;105573;1267;97954;-71
2023/03/09 04:25:40;;;;;;;26.80;13.70;;;;;;;6.82;65.01;96855.61;105408;1256;98013;-70
2023/03/09 04:28:06;;;;;;;24.40;14.10;;;;;;;6.82;65.47;96851.89;105500;1253;98037;-70
2023/03/09 04:30:33;;;;;;;25.90;13.50;;;;;;;6.82;65.22;96851.35;105257;1257;97955;-71
2023/03/09 04:33:00;;;;;;;24.40;14.30;;;;;;;6.81;65.24;96851.27;104955;1260;98060;-72
2023/03/09 04:35:27;;;;;;;24.50;12.80;;;;;;;6.83;65.50;96851.24;108602;1254;95955;-70
2023/03/09 04:37:54;;;;;;;24.20;14.50;;;;;;;6.86;65.51;96848.71;108369;1252;96010;-69
2023/03/09 04:40:20;;;;;;;25.90;14.50;;;;;;;6.88;65.37;96848.59;106435;1254;97948;-71
2023/03/09 04:42:47;;;;;;;21.40;11.80;;;;;;;6.88;65.26;96853.52;104996;1260;97980;-71
2023/03/09 04:45:14;;;;;;;24.80;11.90;;;;;;;6.89;65.41;96855.98;105979;1254;97969;-71
2023/03/09 04:47:42;;;;;;;23.80;12.70;;;;;;;6.91;65.67;96857.40;105301;1256;111050;-74
2023/03/09 04:50:09;;;;;;;24.50;12.60;;;;;;;6.91;65.40;96858.61;108745;1252;95987;-74
2023/03/09 04:52:36;;;;;;;24.10;13.20;;;;;;;6.92;66.03;96860.02;107822;1254;107704;-70
2023/03/09 04:55:02;;;;;;;24.30;12.50;;;;;;;6.91;65.90;96859.55;105598;1256;98048;-71
2023/03/09 04:57:29;;;;;;;25.90;13.00;;;;;;;6.90;65.82;96859.27;108587;1253;95906;-73
2023/03/09 04:59:56;;;;;;;24.70;13.10;;;;;;;6.89;66.33;96861.80;108285;1252;97934;-72
2023/03/09 05:02:25;;;;;;;23.20;12.20;;;;;;;6.87;65.54;96860.58;105713;1254;107196;-71
2023/03/09 05:04:52;;;;;;;22.80;11.90;;;;;;;6.84;66.46;96866.98;105672;1258;97969;-73
2023/03/09 05:07:18;;;;;;;22.30;12.40;;;;;;;6.81;65.88;96872.73;105919;1252;98488;-71
2023/03/09 05:09:45;;;;;;;22.60;12.30;;;;;;;6.80;65.89;96877.84;105317;1253;97925;-70
2023/03/09 05:12:11;;;;;;;23.00;12.40;;;;;;;6.77;65.94;96873.67;105646;1253;97941;-70
2023/03/09 05:14:38;;;;;;;23.70;13.00;;;;;;;6.75;66.36;96875.95;105251;1256;99162;-72
2023/03/09 05:17:05;;;;;;;24.50;14.40;;;;;;;6.73;66.07;96875.59;105250;1256;97973;-70
2023/03/09 05:19:33;;;;;;;27.10;14.30;;;;;;;6.72;66.33;96877.16;105420;1257;98068;-69
2023/03/09 05:21:59;;;;;;;27.40;15.70;;;;;;;6.70;66.33;96876.22;105568;1253;98018;-71
2023/03/09 05:24:46;;;;;;;24.90;14.00;;;;;;;6.69;66.49;96878.64;105946;1254;98212;-77
2023/03/09 05:27:39;;;;;;;24.50;14.40;;;;;;;6.66;66.54;96877.64;105739;1259;98054;-76
2023/03/09 05:30:06;;;;;;;24.10;13.50;;;;;;;6.66;66.71;96879.98;105674;1253;98360;-75
2023/03/09 05:32:33;;;;;;;25.20;14.60;;;;;;;6.64;66.42;96880.84;105757;1253;98482;-74
2023/03/09 05:35:00;;;;;;;26.30;15.10;;;;;;;6.63;66.34;96880.42;105086;1254;98453;-74
2023/03/09 05:37:26;;;;;;;27.10;15.20;;;;;;;6.62;66.72;96883.17;105778;1254;97981;-73
2023/03/09 05:39:53;;;;;;;26.80;16.00;;;;;;;6.61;66.73;96880.73;105276;1258;98805;-75
2023/03/09 05:42:21;;;;;;;24.80;14.40;;;;;;;6.61;66.84;96882.15;105993;1253;97882;-75
2023/03/09 05:44:47;;;;;;;27.40;16.30;;;;;;;6.61;66.78;96879.34;105529;1257;100598;-72
2023/03/09 05:47:14;;;;;;;26.90;15.70;;;;;;;6.61;66.82;96884.13;105424;1252;97935;-74
2023/03/09 05:49:40;;;;;;;26.10;15.30;;;;;;;6.60;66.89;96880.08;105018;1270;98023;-73
2023/03/09 05:52:07;;;;;;;27.50;16.00;;;;;;;6.61;66.99;96879.89;105252;1254;97957;-73
2023/03/09 05:54:37;;;;;;;24.40;14.70;;;;;;;6.61;67.08;96879.36;105318;1253;100829;-73
2023/03/09 05:57:04;;;;;;;25.40;15.90;;;;;;;6.62;67.13;96880.31;104953;1260;109151;-74
2023/03/09 05:59:31;;;;;;;24.10;15.00;;;;;;;6.62;67.16;96877.01;105333;1254;98057;-73
2023/03/09 06:01:57;;;;;;;25.20;15.40;;;;;;;6.62;67.23;96874.34;105524;1256;99154;-72
2023/03/09 06:04:24;;;;;;;25.50;14.30;;;;;;;6.62;67.12;96874.00;105441;1259;98334;-72
2023/03/09 06:06:53;;;;;;;21.40;11.90;;;;;;;6.62;67.33;96876.42;105848;1257;98017;-72
2023/03/09 06:09:20;;;;;;;23.30;13.90;;;;;;;6.63;67.24;96877.59;105346;1254;98084;-72
2023/03/09 06:11:49;;;;;;;25.70;15.10;;;;;;;6.63;66.97;96875.84;105404;1256;98846;-73
2023/03/09 06:14:16;;;;;;;27.20;15.30;;;;;;;6.64;67.32;96878.17;105551;1266;97871;-74
2023/03/09 06:16:42;;;;;;;24.60;14.50;;;;;;;6.65;67.42;96882.85;105482;1253;97922;-71
2023/03/09 06:19:11;;;;;;;23.80;13.90;;;;;;;6.66;67.55;96882.61;105655;1256;97957;-71
2023/03/09 06:21:37;;;;;;;26.40;15.40;;;;;;;6.67;67.55;96884.32;105548;1256;99237;-70
2023/03/09 06:24:05;;;;;;;24.50;14.60;;;;;;;6.67;67.28;96883.90;105764;1253;99597;-69
2023/03/09 06:26:32;;;;;;;25.70;15.00;;;;;;;6.68;67.58;96881.35;105237;1259;98062;-72
2023/03/09 06:29:01;;;;;;;25.70;14.90;;;;;;;6.68;67.50;96883.79;105432;1254;99266;-75
2023/03/09 06:31:28;;;;;;;24.70;14.30;;;;;;;6.69;67.61;96884.77;105873;1257;108932;-73
2023/03/09 06:33:58;;;;;;;27.00;16.50;;;;;;;6.69;67.57;96884.98;105545;1256;98053;-70
2023/03/09 06:36:26;;;;;;;24.50;14.50;;;;;;;6.69;67.68;96883.71;105274;1256;97986;-72
2023/03/09 06:38:53;;;;;;;25.10;15.20;;;;;;;6.70;67.70;96885.04;105671;1256;111126;-73
2023/03/09 06:41:29;;;;;;;27.30;15.60;;;;;;;6.71;67.68;96886.04;105583;1254;97944;-75
2023/03/09 06:43:55;;;;;;;27.20;15.20;;;;;;;6.72;67.87;96886.27;105562;1256;107046;-75
2023/03/09 06:46:22;;;;;;;24.80;14.30;;;;;;;6.73;68.32;96883.86;105832;1253;97951;-75
2023/03/09 06:48:49;;;;;;;25.40;14.60;;;;;;;6.75;68.18;96888.48;105633;1254;97845;-74
2023/03/09 06:51:28;;;;;;;23.30;14.00;;;;;;;6.78;68.06;96889.11;105857;1252;98980;-83
2023/03/09 06:53:57;;;;;;;25.20;14.20;;;;;;;6.82;68.10;96888.19;105446;1262;101923;-76
2023/03/09 06:56:23;;;;;;;25.70;15.70;;;;;;;6.86;67.99;96886.02;105591;1259;107612;-75
2023/03/09 06:58:53;;;;;;;24.90;15.50;;;;;;;6.90;67.80;96886.56;105049;1259;98033;-72
2023/03/09 07:01:20;;;;;;;22.20;12.40;;;;;;;6.91;67.99;96889.34;105467;1254;98414;-72
2023/03/09 07:03:47;;;;;;;28.80;15.70;;;;;;;6.90;68.14;96888.02;105719;1253;98033;-74
2023/03/09 07:06:15;;;;;;;27.10;16.40;;;;;;;6.88;68.19;96887.29;105381;1254;98032;-79
2023/03/09 07:08:41;;;;;;;27.30;16.80;;;;;;;6.88;68.30;96883.61;105267;1253;97957;-73
2023/03/09 07:11:08;;;;;;;29.20;15.60;;;;;;;6.89;67.98;96883.13;105260;1272;99657;-73
2023/03/09 07:13:34;;;;;;;25.60;15.30;;;;;;;6.89;68.07;96882.48;105724;1254;97951;-74
2023/03/09 07:16:03;;;;;;;29.30;16.60;;;;;;;6.87;68.37;96881.36;105570;1257;98031;-74
2023/03/09 07:18:33;;;;;;;27.50;16.10;;;;;;;6.86;68.33;96884.51;105682;1256;107657;-74
2023/03/09 07:21:01;;;;;;;28.20;15.90;;;;;;;6.84;68.58;96881.42;105380;1254;97890;-74
2023/03/09 07:23:29;;;;;;;26.60;14.80;;;;;;;6.85;68.53;96878.89;105513;1254;98370;-72
2023/03/09 07:26:02;;;;;;;28.10;16.60;;;;;;;6.92;68.58;96877.06;105470;1257;111270;-73
2023/03/09 07:28:29;;;;;;;26.20;15.70;;;;;;;7.00;68.70;96873.72;105516;1259;100562;-73
2023/03/09 07:30:56;;;;;;;31.60;18.00;;;;;;;7.03;68.57;96871.33;105405;1257;98061;-72
2023/03/09 07:33:23;;;;;;;31.60;16.40;;;;;;;7.04;68.59;96872.97;105598;1270;98133;-74
2023/03/09 07:35:50;;;;;;;28.30;17.00;;;;;;;7.05;68.87;96871.99;105547;1256;97946;-73
2023/03/09 07:38:16;;;;;;;25.90;15.30;;;;;;;7.05;68.57;96867.88;105225;1256;99272;-74
2023/03/09 07:40:43;;;;;;;31.30;17.50;;;;;;;7.07;68.69;96867.70;105973;1256;98466;-74
2023/03/09 07:43:12;;;;;;;27.90;16.40;;;;;;;7.08;69.14;96867.95;105194;1257;98862;-71
2023/03/09 07:45:40;;;;;;;28.00;16.10;;;;;;;7.10;68.91;96868.51;105719;1253;97931;-72
2023/03/09 07:48:08;;;;;;;27.00;15.90;;;;;;;7.14;68.92;96864.42;105755;1256;111375;-72
2023/03/09 07:50:34;;;;;;;27.70;16.20;;;;;;;7.21;68.96;96858.89;105378;1267;100985;-72
2023/03/09 07:53:01;;;;;;;26.70;15.60;;;;;;;7.27;68.75;96855.77;105199;1257;97957;-75
2023/03/09 07:55:29;;;;;;;27.30;15.70;;;;;;;7.37;69.13;96855.23;105119;1259;98861;-72
2023/03/09 07:57:55;;;;;;;26.70;15.90;;;;;;;7.46;69.30;96849.97;105164;1256;98494;-70
2023/03/09 08:00:24;;;;;;;28.20;17.40;;;;;;;7.55;69.12;96848.95;105211;1254;97973;-74
2023/03/09 08:02:51;;;;;;;28.60;17.20;;;;;;;7.66;69.53;96846.48;105445;1269;98062;-71
2023/03/09 08:05:18;;;;;;;27.90;16.80;;;;;;;7.79;69.23;96845.99;105551;1256;97942;-70
2023/03/09 08:07:46;;;;;;;25.00;15.60;;;;;;;7.88;69.34;96845.91;105508;1257;99371;-72
2023/03/09 08:10:14;;;;;;;27.80;16.30;;;;;;;7.95;69.27;96840.17;105677;1256;99251;-74
2023/03/09 08:12:43;;;;;;;23.10;13.80;;;;;;;8.00;69.51;96842.27;105858;1253;97970;-75
2023/03/09 08:15:10;;;;;;;25.60;15.10;;;;;;;8.03;69.64;96841.71;105511;1254;99468;-72
2023/03/09 08:17:38;;;;;;;24.20;13.80;;;;;;;8.03;69.34;96846.24;105663;1253;107546;-72
2023/03/09 08:20:08;;;;;;;24.80;14.00;;;;;;;8.04;69.53;96840.50;105629;1256;98049;-72
2023/03/09 08:22:36;;;;;;;23.10;13.60;;;;;;;8.04;69.44;96836.92;105365;1259;98459;-78
2023/03/09 08:25:03;;;;;;;25.70;14.50;;;;;;;8.07;69.44;96836.77;105383;1256;110842;-70
2023/03/09 08:27:46;;;;;;;22.90;13.20;;;;;;;8.06;69.59;96831.52;105703;1258;100688;-70
2023/03/09 08:30:14;;;;;;;23.90;14.60;;;;;;;8.07;69.90;96833.70;105205;1269;106287;-71
2023/03/09 08:32:46;;;;;;;25.80;14.30;;;;;;;8.09;69.81;96825.42;105491;1257;97946;-72
2023/03/09 08:35:13;;;;;;;23.30;13.90;;;;;;;8.12;69.94;96826.91;105538;1257;99201;-71
2023/03/09 08:37:40;;;;;;;24.30;14.50;;;;;;;8.14;69.69;96829.73;105740;1253;98085;-72
2023/03/09 08:40:07;;;;;;;23.30;13.40;;;;;;;8.13;70.01;96829.23;105706;1258;98033;-76
2023/03/09 08:42:34;;;;;;;24.60;14.10;;;;;;;8.10;69.76;96830.80;105828;1256;98190;-72
2023/03/09 08:45:03;;;;;;;23.00;13.40;;;;;;;8.08;69.86;96826.77;105283;1254;98027;-71
2023/03/09 08:47:33;;;;;;;23.80;13.70;;;;;;;8.10;69.89;96822.88;105550;1253;98019;-72
2023/03/09 08:50:00;;;;;;;22.70;13.50;;;;;;;8.15;70.14;96813.50;105347;1258;112043;-72
2023/03/09 08:52:26;;;;;;;23.90;12.80;;;;;;;8.25;69.88;96812.55;105568;1257;98437;-74
2023/03/09 08:54:53;;;;;;;24.10;13.00;;;;;;;8.34;70.00;96811.27;105603;1253;98890;-70
2023/03/09 08:57:20;;;;;;;24.30;13.00;;;;;;;8.41;70.18;96810.09;105703;1258;98060;-72
2023/03/09 08:59:47;;;;;;;24.50;13.20;;;;;;;8.44;70.09;96806.75;105495;1259;109766;-75
2023/03/09 09:02:14;;;;;;;22.30;11.70;;;;;;;8.44;70.11;96805.19;105551;1254;100594;-74
2023/03/09 09:04:42;;;;;;;25.00;12.30;;;;;;;8.43;69.89;96806.48;105391;1254;97994;-73
2023/03/09 09:07:09;;;;;;;21.70;11.20;;;;;;;8.46;70.02;96805.70;105479;1256;98066;-73
2023/03/09 09:09:35;;;;;;;22.70;12.60;;;;;;;8.46;70.09;96799.90;105511;1257;99186;-73
2023/03/09 09:12:02;;;;;;;21.60;12.60;;;;;;;8.45;70.10;96802.95;105507;1254;98238;-73
2023/03/09 09:14:29;;;;;;;19.20;9.70;;;;;;;8.48;70.12;96798.98;105658;1258;99728;-73
2023/03/09 09:16:56;;;;;;;22.50;10.60;;;;;;;8.55;70.13;96793.68;105796;1254;99454;-72
2023/03/09 09:19:22;;;;;;;20.60;10.50;;;;;;;8.64;70.21;96787.14;105798;1254;97935;-73
2023/03/09 09:21:51;;;;;;;24.80;11.10;;;;;;;8.76;70.18;96782.81;106086;1253;111317;-79
2023/03/09 09:24:19;;;;;;;22.30;9.60;;;;;;;8.86;70.21;96774.32;106199;1257;100972;-69
2023/03/09 09:26:46;;;;;;;22.00;11.40;;;;;;;8.97;70.11;96765.45;108627;1256;96325;-72
2023/03/09 09:29:13;;;;;;;19.70;9.10;;;;;;;9.07;70.03;96753.84;108718;1254;95706;-74
2023/03/09 09:31:39;;;;;;;19.70;9.60;;;;;;;9.19;70.22;96754.48;108572;1254;96038;-72
2023/03/09 09:34:06;;;;;;;20.70;9.40;;;;;;;9.31;70.10;96760.59;108704;1256;96864;-71
2023/03/09 09:36:34;;;;;;;18.50;8.80;;;;;;;9.41;70.10;96755.24;107001;1254;99362;-71
2023/03/09 09:39:02;;;;;;;18.90;8.90;;;;;;;9.50;69.99;96757.55;105500;1256;98537;-70
2023/03/09 09:41:52;;;;;;;19.50;10.10;;;;;;;9.58;70.06;96755.99;105917;1256;97960;-71
2023/03/09 09:44:40;;;;;;;17.30;8.10;;;;;;;9.65;69.91;96756.17;105834;1260;98364;-71
2023/03/09 09:47:13;;;;;;;17.70;9.00;;;;;;;9.73;70.01;96757.82;106053;1254;110969;-73
2023/03/09 09:49:45;;;;;;;18.60;8.60;;;;;;;9.72;70.08;96767.41;106033;1256;100519;-71
2023/03/09 09:52:26;;;;;;;20.50;10.00;;;;;;;9.69;70.06;96769.49;105757;1258;107563;-73
2023/03/09 09:55:05;;;;;;;19.00;9.50;;;;;;;9.69;70.03;96774.30;105693;1258;97952;-72
2023/03/09 09:57:41;;;;;;;21.10;9.60;;;;;;;9.69;70.13;96776.60;105657;1256;97925;-71
2023/03/09 10:00:32;;;;;;;19.90;9.50;;;;;;;9.64;69.95;96781.19;105682;1254;111802;-74
2023/03/09 10:03:05;;;;;;;20.20;9.60;;;;;;;9.54;70.09;96787.84;105791;1256;100976;-72
2023/03/09 10:05:48;;;;;;;20.50;9.80;;;;;;;9.45;70.04;96792.90;105771;1254;107562;-77
2023/03/09 10:08:36;;;;;;;23.00;10.00;;;;;;;9.33;70.03;96801.73;105361;1256;97919;-79
2023/03/09 10:11:24;;;;;;;24.30;12.00;;;;;;;9.25;69.96;96818.17;105555;1254;98495;-74
2023/03/09 10:14:00;;;;;;;23.10;11.20;;;;;;;9.18;70.13;96824.14;105589;1256;111229;-73
2023/03/09 10:16:34;;;;;;;25.10;11.80;;;;;;;9.11;70.14;96821.49;105597;1256;101367;-73
2023/03/09 10:19:07;;;;;;;24.00;12.40;;;;;;;9.11;70.10;96822.02;105424;1257;107277;-73
2023/03/09 10:21:48;;;;;;;22.40;11.20;;;;;;;9.11;70.18;96819.73;105624;1254;98051;-72
2023/03/09 10:24:21;;;;;;;22.40;10.60;;;;;;;9.08;70.26;96820.38;105551;1256;99592;-76
2023/03/09 10:27:04;;;;;;;23.60;10.80;;;;;;;9.05;70.23;96819.26;105383;1256;111307;-75
2023/03/09 10:29:49;;;;;;;;;;;;;;;9.06;70.28;96817.02;105683;1255;100739;-76
2023/03/09 10:32:28;;;;;;;22.70;10.90;;;;;;;9.07;70.46;96820.11;105818;1257;107618;-75
2023/03/09 10:35:01;;;;;;;;;;;;;;;9.06;70.44;96816.48;105553;1256;99251;-74
2023/03/09 10:37:34;;;;;;;23.50;10.50;;;;;;;9.06;70.58;96819.83;105537;1254;97977;-73
2023/03/09 10:40:17;;;;;;;22.20;11.00;;;;;;;9.13;70.45;96824.31;105339;1267;110883;-72
2023/03/09 10:42:43;;;;;;;23.30;11.20;;;;;;;9.17;70.75;96826.32;105816;1256;100572;-73
2023/03/09 10:45:13;;;;;;;21.20;9.10;;;;;;;9.22;70.31;96829.73;105558;1255;97931;-74
2023/03/09 10:47:46;;;;;;;22.10;10.50;;;;;;;9.28;70.38;96834.49;105676;1254;97953;-73
2023/03/09 10:50:15;;;;;;;22.20;11.10;;;;;;;9.37;70.48;96838.44;105216;1254;98059;-73
2023/03/09 10:52:55;;;;;;;21.20;10.60;;;;;;;9.53;70.61;96832.02;105225;1256;111303;-72
2023/03/09 10:55:45;;;;;;;18.90;10.20;;;;;;;9.61;70.53;96831.24;105729;1254;101797;-71
2023/03/09 10:58:23;;;;;;;18.80;9.20;;;;;;;9.63;70.62;96824.59;105379;1259;107723;-71
2023/03/09 11:01:03;;;;;;;20.70;9.70;;;;;;;9.57;70.53;96824.73;105070;1259;97992;-72
2023/03/09 11:03:38;;;;;;;21.40;10.20;;;;;;;9.53;70.74;96826.35;105648;1253;98447;-78
2023/03/09 11:06:28;;;;;;;20.70;10.30;;;;;;;9.50;70.60;96827.04;105405;1259;111279;-71
2023/03/09 11:09:10;;;;;;;20.40;10.40;;;;;;;9.41;70.68;96830.27;105547;1256;100598;-79
2023/03/09 11:11:45;;;;;;;20.90;10.60;;;;;;;9.30;70.50;96832.13;105586;1257;106867;-73
2023/03/09 11:14:22;;;;;;;23.50;10.70;;;;;;;9.20;70.46;96825.47;105641;1254;97947;-73
2023/03/09 11:16:55;;;;;;;24.90;12.10;;;;;;;9.16;70.55;96821.02;105170;1254;99170;-74
2023/03/09 11:19:22;;;;;;;21.30;10.90;;;;;;;9.14;70.76;96816.76;105543;1259;111223;-77
2023/03/09 11:22:00;;;;;;;23.80;11.00;;;;;;;9.11;70.79;96815.63;105365;1253;97854;-74
2023/03/09 11:24:32;;;;;;;24.10;12.00;;;;;;;9.09;70.76;96806.45;105367;1259;107720;-75
2023/03/09 11:27:12;;;;;;;25.70;11.60;;;;;;;9.08;70.76;96806.09;105584;1254;98056;-73